Time;durP1;ratioP1;P1;durP2;ratioP2;P2;SDS_P1;SDS_P2;PMS_P1;PMS_P2;Temp;Humidity;BMP_temperature;BMP_pressure;BME280_temperature;BME280_humidity;BME280_pressure;Samples;Min_cycle;Max_cycle;Signal;HPM_P1;HPM_P2
2023/09/04 00:00:29;;;;;;;6.10;4.57;;;14.80;72.90;;;;;;20553892;28;20043;-41
2023/09/04 00:10:29;;;;;;;5.47;4.00;;;14.70;77.90;;;;;;20536464;28;20498;-41
2023/09/04 00:20:30;;;;;;;7.38;4.88;;;14.60;76.10;;;;;;20564376;28;20045;-40
2023/09/04 00:30:31;;;;;;;6.47;4.45;;;14.50;81.90;;;;;;20580261;28;20042;-41
2023/09/04 00:40:31;;;;;;;5.38;4.32;;;14.40;79.50;;;;;;20583415;28;20046;-41
2023/09/04 00:50:32;;;;;;;5.68;4.38;;;14.40;90.40;;;;;;20586374;28;20561;-41
2023/09/04 01:00:33;;;;;;;5.85;4.55;;;14.40;82.80;;;;;;20579446;28;20537;-41
2023/09/04 01:10:53;;;;;;;7.30;4.72;;;14.40;94.80;;;;;;20576292;28;20426;-41
2023/09/04 01:21:02;;;;;;;5.90;4.78;;;14.20;95.20;;;;;;20574982;28;20104;-41
2023/09/04 01:31:28;;;;;;;6.72;4.80;;;14.10;94.40;;;;;;20581611;28;20035;-41
2023/09/04 01:41:29;;;;;;;5.45;4.65;;;14.10;88.40;;;;;;20581452;28;20050;-41
2023/09/04 01:51:29;;;;;;;6.47;4.90;;;14.00;93.50;;;;;;20551350;28;20486;-41
2023/09/04 02:01:30;;;;;;;5.72;4.20;;;13.80;97.10;;;;;;20546566;28;20039;-41
2023/09/04 02:11:31;;;;;;;5.80;4.73;;;13.70;95.40;;;;;;20557468;28;20088;-41
2023/09/04 02:21:32;;;;;;;6.15;4.90;;;13.70;92.60;;;;;;20547143;28;20485;-41
2023/09/04 02:31:33;;;;;;;7.53;5.13;;;13.60;92.80;;;;;;20541840;28;20498;-41
2023/09/04 02:41:33;;;;;;;7.15;6.00;;;13.50;94.40;;;;;;20571457;28;20055;-42
2023/09/04 02:51:34;;;;;;;7.38;5.55;;;13.50;98.10;;;;;;20571030;28;20039;-41
2023/09/04 03:01:35;;;;;;;6.72;5.70;;;13.60;96.20;;;;;;20571617;28;20039;-41
2023/09/04 03:11:35;;;;;;;6.20;5.20;;;13.60;95.10;;;;;;20562175;28;20049;-41
2023/09/04 03:21:36;;;;;;;7.72;5.15;;;13.50;99.30;;;;;;20566420;28;20042;-41
2023/09/04 03:31:36;;;;;;;6.30;5.10;;;13.40;99.90;;;;;;20551816;28;20039;-41
2023/09/04 03:41:37;;;;;;;6.45;5.28;;;13.20;97.70;;;;;;20571937;28;20637;-41
2023/09/04 03:51:37;;;;;;;6.40;5.43;;;13.10;96.90;;;;;;20571299;28;20522;-41
2023/09/04 04:01:38;;;;;;;6.78;5.40;;;13.10;99.20;;;;;;20562896;28;20133;-41
2023/09/04 04:11:38;;;;;;;7.57;5.95;;;12.90;99.90;;;;;;20569165;28;20049;-41
2023/09/04 04:21:40;;;;;;;7.67;5.97;;;12.90;99.90;;;;;;20557959;28;20049;-40
2023/09/04 04:31:41;;;;;;;9.13;7.20;;;12.70;99.90;;;;;;20547519;28;20576;-41
2023/09/04 04:41:42;;;;;;;9.48;7.05;;;12.70;98.60;;;;;;20568638;28;20047;-42
2023/09/04 04:51:42;;;;;;;8.90;7.18;;;12.80;97.40;;;;;;20559601;28;20386;-41
2023/09/04 05:01:43;;;;;;;9.10;7.38;;;12.90;99.90;;;;;;20557001;28;20046;-41
2023/09/04 05:11:43;;;;;;;10.25;8.13;;;12.90;99.90;;;;;;20555629;28;20125;-41
2023/09/04 05:21:44;;;;;;;10.47;8.27;;;12.90;99.90;;;;;;20556843;28;20040;-41
2023/09/04 05:31:45;;;;;;;9.60;7.35;;;12.90;99.90;;;;;;20540985;28;20089;-40
2023/09/04 05:41:45;;;;;;;8.95;7.38;;;12.90;99.90;;;;;;20555266;28;20188;-41
2023/09/04 05:51:46;;;;;;;10.95;7.55;;;12.80;99.90;;;;;;20570386;28;20034;-41
2023/09/04 06:01:46;;;;;;;12.02;9.68;;;12.90;99.90;;;;;;20569148;28;20134;-41
2023/09/04 06:11:47;;;;;;;11.77;9.55;;;13.20;99.90;;;;;;20546841;28;20043;-41
2023/09/04 06:21:48;;;;;;;15.20;11.68;;;13.40;99.90;;;;;;20589644;28;20053;-41
2023/09/04 06:31:48;;;;;;;14.68;11.52;;;13.60;99.90;;;;;;20589970;28;20092;-41
2023/09/04 06:41:49;;;;;;;14.52;11.50;;;14.10;99.90;;;;;;20595792;28;20053;-41
2023/09/04 06:51:50;;;;;;;16.35;12.38;;;14.50;99.90;;;;;;20580191;28;20043;-41
2023/09/04 07:01:50;;;;;;;14.85;11.48;;;14.80;77.60;;;;;;20565111;28;20082;-41
2023/09/04 07:11:51;;;;;;;13.85;10.32;;;15.20;41.40;;;;;;20574722;28;20038;-41
2023/09/04 07:21:52;;;;;;;13.00;10.38;;;15.50;15.50;;;;;;20570643;28;20046;-41
2023/09/04 07:31:53;;;;;;;13.93;10.07;;;15.70;10.80;;;;;;20580209;28;20034;-41
2023/09/04 07:41:56;;;;;;;12.80;9.98;;;16.00;10.10;;;;;;20587701;28;20047;-41
2023/09/04 07:51:56;;;;;;;17.00;11.73;;;16.30;9.90;;;;;;20574718;28;20035;-41
2023/09/04 08:01:57;;;;;;;9.97;8.70;;;16.70;7.10;;;;;;20567577;28;20487;-41
2023/09/04 08:11:58;;;;;;;12.05;9.02;;;17.20;1.00;;;;;;20574366;28;20470;-41
2023/09/04 08:21:58;;;;;;;10.25;8.70;;;17.60;1.00;;;;;;20586035;28;20524;-41
2023/09/04 08:31:59;;;;;;;8.57;6.90;;;17.90;1.00;;;;;;20581912;28;20038;-41
2023/09/04 08:42:02;;;;;;;15.60;9.10;;;18.40;1.00;;;;;;20583548;28;20046;-41
2023/09/04 08:52:05;;;;;;;11.15;8.20;;;19.00;1.00;;;;;;20575747;28;20041;-41
2023/09/04 09:02:13;;;;;;;9.80;6.72;;;19.50;1.00;;;;;;20574699;28;20073;-41
2023/09/04 09:12:14;;;;;;;11.65;5.50;;;19.90;1.00;;;;;;20580063;28;20066;-41
2023/09/04 09:22:16;;;;;;;9.25;5.38;;;20.40;1.00;;;;;;20587026;28;20042;-41
2023/09/04 09:32:18;;;;;;;5.55;4.50;;;21.10;1.00;;;;;;20591340;28;20427;-41
2023/09/04 09:42:23;;;;;;;7.10;4.80;;;21.80;1.00;;;;;;20593413;28;20066;-42
2023/09/04 09:52:24;;;;;;;6.50;4.18;;;21.90;1.00;;;;;;20596066;28;20039;-41
2023/09/04 10:02:27;;;;;;;6.90;4.25;;;23.30;1.00;;;;;;20592698;28;20046;-41
2023/09/04 10:12:41;;;;;;;7.78;4.00;;;23.20;1.00;;;;;;20589720;28;20046;-41
2023/09/04 10:22:52;;;;;;;5.38;3.30;;;23.00;1.00;;;;;;20591432;28;20042;-41
2023/09/04 10:32:55;;;;;;;5.32;3.85;;;23.00;1.00;;;;;;20603471;28;20364;-41
2023/09/04 10:43:03;;;;;;;4.97;3.22;;;23.20;1.00;;;;;;20578274;28;20058;-41
2023/09/04 10:53:05;;;;;;;4.75;3.50;;;23.60;1.00;;;;;;20587357;28;20597;-41
2023/09/04 11:03:19;;;;;;;6.13;2.95;;;24.20;1.00;;;;;;20589412;28;20053;-41
2023/09/04 11:13:21;;;;;;;4.03;3.00;;;24.30;1.00;;;;;;20588681;28;20126;-41
2023/09/04 11:23:26;;;;;;;3.67;2.67;;;24.70;1.00;;;;;;20590098;28;20521;-41
2023/09/04 11:33:31;;;;;;;3.67;2.60;;;25.20;1.00;;;;;;20589418;28;20145;-41
2023/09/04 11:43:32;;;;;;;3.00;2.30;;;25.30;1.00;;;;;;20582398;28;20070;-41
2023/09/04 11:53:33;;;;;;;3.20;2.50;;;25.50;1.00;;;;;;20585813;28;20115;-41
2023/09/04 12:03:34;;;;;;;4.40;2.50;;;25.90;1.00;;;;;;20577185;28;20039;-41
2023/09/04 12:13:35;;;;;;;3.33;2.20;;;26.10;1.00;;;;;;20582965;28;20060;-41
2023/09/04 12:23:43;;;;;;;3.67;2.45;;;26.50;1.00;;;;;;20584882;28;20039;-41
2023/09/04 12:33:44;;;;;;;3.78;2.20;;;27.00;1.00;;;;;;20582162;28;20573;-41
2023/09/04 12:43:45;;;;;;;3.90;2.40;;;26.70;1.00;;;;;;20580755;28;20106;-41
2023/09/04 12:53:46;;;;;;;4.55;3.22;;;27.00;1.00;;;;;;20583465;28;20034;-41
2023/09/04 13:03:47;;;;;;;4.30;2.65;;;27.30;1.00;;;;;;20580175;28;20054;-41
2023/09/04 13:13:47;;;;;;;5.00;2.72;;;27.30;1.00;;;;;;20582065;28;20050;-41
2023/09/04 13:23:48;;;;;;;4.33;2.70;;;27.60;1.00;;;;;;20578091;28;20599;-41
2023/09/04 13:33:48;;;;;;;4.93;2.38;;;27.70;1.00;;;;;;20577179;28;20119;-41
2023/09/04 13:43:50;;;;;;;3.03;2.10;;;28.00;1.00;;;;;;20576716;28;20050;-41
2023/09/04 13:53:50;;;;;;;3.47;2.45;;;27.80;1.00;;;;;;20568707;28;21802;-41
2023/09/04 14:03:51;;;;;;;3.40;2.65;;;27.10;1.00;;;;;;20576669;28;21639;-41
2023/09/04 14:13:52;;;;;;;3.83;2.60;;;26.50;1.00;;;;;;20570625;28;20450;-41
2023/09/04 14:23:52;;;;;;;4.93;2.95;;;26.10;1.00;;;;;;20572394;28;20045;-41
2023/09/04 14:33:53;;;;;;;4.45;2.92;;;25.80;1.00;;;;;;20593201;28;20038;-41
2023/09/04 14:43:54;;;;;;;3.95;2.70;;;26.00;1.00;;;;;;20586350;28;20094;-42
2023/09/04 14:53:54;;;;;;;4.93;2.67;;;26.30;1.00;;;;;;20584587;28;20436;-41
2023/09/04 15:03:55;;;;;;;4.95;2.65;;;26.00;1.00;;;;;;20581863;28;20073;-41
2023/09/04 15:13:56;;;;;;;5.32;3.00;;;25.70;1.00;;;;;;20556944;28;20042;-41
2023/09/04 15:23:56;;;;;;;4.18;2.50;;;25.50;1.00;;;;;;20533262;28;20066;-41
2023/09/04 15:33:57;;;;;;;3.60;2.60;;;25.60;1.00;;;;;;20578923;28;20402;-41
2023/09/04 15:43:57;;;;;;;5.10;3.00;;;25.30;1.00;;;;;;20523778;28;20099;-41
2023/09/04 15:53:58;;;;;;;5.35;2.70;;;25.30;1.00;;;;;;20554044;28;20053;-41
2023/09/04 16:03:58;;;;;;;5.27;2.50;;;25.40;1.00;;;;;;20569458;28;20706;-41
2023/09/04 16:13:59;;;;;;;4.03;2.55;;;25.40;1.00;;;;;;20570961;28;20070;-41
2023/09/04 16:23:59;;;;;;;3.38;2.40;;;25.20;1.00;;;;;;20583622;28;20047;-41
2023/09/04 16:34:10;;;;;;;4.75;2.67;;;24.90;1.00;;;;;;20577966;28;20049;-41
2023/09/04 16:44:10;;;;;;;3.65;2.55;;;24.70;1.00;;;;;;20583271;28;20042;-41
2023/09/04 16:54:11;;;;;;;4.28;2.95;;;24.50;1.00;;;;;;20556282;28;20317;-41
2023/09/04 17:04:11;;;;;;;3.50;2.67;;;24.20;1.00;;;;;;20553815;28;20109;-41
2023/09/04 17:14:12;;;;;;;4.40;3.42;;;24.00;1.00;;;;;;20518576;28;20042;-41
2023/09/04 17:24:12;;;;;;;5.67;3.20;;;23.80;1.00;;;;;;20549291;28;20192;-41
2023/09/04 17:34:13;;;;;;;5.10;3.50;;;23.60;1.00;;;;;;20562059;28;20409;-41
2023/09/04 17:44:13;;;;;;;4.10;3.28;;;23.50;1.00;;;;;;20583217;28;20489;-41
2023/09/04 17:54:14;;;;;;;4.72;3.60;;;23.30;1.00;;;;;;20589188;28;20055;-41
2023/09/04 18:04:18;;;;;;;4.90;3.72;;;23.10;1.00;;;;;;20582731;28;20038;-40
2023/09/04 18:14:18;;;;;;;5.55;3.72;;;22.90;1.00;;;;;;20593231;28;20514;-41
2023/09/04 18:24:19;;;;;;;9.65;7.72;;;22.70;1.00;;;;;;20592696;28;20046;-40
2023/09/04 18:34:19;;;;;;;6.18;4.15;;;22.50;1.00;;;;;;20553941;28;20074;-41
2023/09/04 18:44:20;;;;;;;4.75;3.88;;;22.30;1.00;;;;;;20537526;28;20046;-41
2023/09/04 18:54:20;;;;;;;5.65;4.15;;;22.00;1.00;;;;;;20557526;28;20034;-41
2023/09/04 19:04:21;;;;;;;5.03;4.10;;;21.70;1.00;;;;;;20566125;28;20049;-41
2023/09/04 19:14:21;;;;;;;5.07;4.57;;;21.30;1.00;;;;;;20533192;28;20500;-41
2023/09/04 19:24:22;;;;;;;5.10;4.38;;;20.90;1.00;;;;;;20571265;28;20255;-41
2023/09/04 19:34:22;;;;;;;5.18;4.50;;;20.50;1.00;;;;;;20547293;28;20531;-41
2023/09/04 19:44:23;;;;;;;6.82;4.97;;;20.20;1.00;;;;;;20571753;28;20048;-41
2023/09/04 19:54:24;;;;;;;6.82;5.43;;;19.90;1.00;;;;;;20569685;28;20042;-41
2023/09/04 20:04:25;;;;;;;7.53;6.00;;;19.70;1.00;;;;;;20541541;28;20038;-41
2023/09/04 20:14:26;;;;;;;7.85;6.40;;;19.50;1.00;;;;;;20562097;28;20041;-41
2023/09/04 20:24:27;;;;;;;6.55;5.70;;;19.40;1.00;;;;;;20560267;28;20042;-41
2023/09/04 20:34:27;;;;;;;6.95;5.95;;;19.30;1.00;;;;;;20560109;28;20053;-40
2023/09/04 20:44:28;;;;;;;6.93;5.40;;;19.20;1.00;;;;;;20565956;28;20149;-40
2023/09/04 20:54:28;;;;;;;7.53;6.18;;;19.10;1.00;;;;;;20578646;28;20121;-40
2023/09/04 21:04:29;;;;;;;7.43;6.30;;;18.90;1.00;;;;;;20578644;28;20042;-41
2023/09/04 23:28:48;;;;;;;5.63;4.57;;;17.40;1.00;;;;;;20580164;28;20421;-41
2023/09/04 23:49:08;;;;;;;5.57;4.68;;;17.30;1.00;;;;;;20580878;28;20050;-41
2023/09/04 23:59:09;;;;;;;6.53;4.28;;;17.30;1.00;;;;;;20578660;28;20093;-40
